createdAt,value
2022-10-23T00:00:57.177Z,7.78
2022-10-23T00:01:57.120Z,7.77
2022-10-23T00:02:57.183Z,7.75
2022-10-23T00:03:57.126Z,7.74
2022-10-23T00:04:57.080Z,7.74
2022-10-23T00:05:57.128Z,7.78
2022-10-23T00:06:57.130Z,7.84
2022-10-23T00:07:57.101Z,7.90
2022-10-23T00:08:57.041Z,7.92
2022-10-23T00:09:57.058Z,7.90
2022-10-23T00:10:57.021Z,7.87
2022-10-23T00:11:57.086Z,7.85
2022-10-23T00:12:57.020Z,7.83
2022-10-23T00:13:57.011Z,7.82
2022-10-23T00:14:56.977Z,7.81
2022-10-23T00:15:56.999Z,7.79
2022-10-23T00:16:56.959Z,7.78
2022-10-23T00:17:57.053Z,7.76
2022-10-23T00:18:56.946Z,7.74
2022-10-23T00:19:56.991Z,7.71
2022-10-23T00:20:56.930Z,7.70
2022-10-23T00:21:56.931Z,7.70
2022-10-23T00:22:56.900Z,7.72
2022-10-23T00:23:56.996Z,7.75
2022-10-23T00:24:56.887Z,7.78
2022-10-23T00:25:56.894Z,7.81
2022-10-23T00:26:56.917Z,7.83
2022-10-23T00:27:56.881Z,7.84
2022-10-23T00:28:56.846Z,7.83
2022-10-23T00:29:56.895Z,7.81
2022-10-23T00:30:56.854Z,7.77
2022-10-23T00:31:56.815Z,7.73
2022-10-23T00:32:56.804Z,7.69
2022-10-23T00:33:56.846Z,7.65
2022-10-23T00:34:56.784Z,7.62
2022-10-23T00:35:56.783Z,7.60
2022-10-23T00:36:56.823Z,7.57
2022-10-23T00:37:56.756Z,7.54
2022-10-23T00:38:56.735Z,7.52
2022-10-23T00:39:56.737Z,7.50
2022-10-23T00:40:56.723Z,7.50
2022-10-23T00:41:56.727Z,7.50
2022-10-23T00:42:56.764Z,7.50
2022-10-23T00:43:56.686Z,7.49
2022-10-23T00:44:56.684Z,7.48
2022-10-23T00:45:56.682Z,7.47
2022-10-23T00:46:56.654Z,7.46
2022-10-23T00:47:56.664Z,7.45
2022-10-23T00:48:56.803Z,7.43
2022-10-23T00:49:56.629Z,7.41
2022-10-23T00:50:56.629Z,7.38
2022-10-23T00:51:56.665Z,7.36
2022-10-23T00:52:56.597Z,7.35
2022-10-23T00:54:01.415Z,7.32
2022-10-23T00:54:56.588Z,7.29
2022-10-23T00:55:56.574Z,7.26
2022-10-23T00:56:56.552Z,7.22
2022-10-23T00:57:56.605Z,7.19
2022-10-23T00:58:56.538Z,7.18
2022-10-23T00:59:56.551Z,7.19
2022-10-23T01:02:14.582Z,8.41
2022-10-23T01:03:15.299Z,7.93
2022-10-23T01:04:15.226Z,7.62
2022-10-23T01:05:15.295Z,7.43
2022-10-23T01:06:15.307Z,7.31
2022-10-23T01:07:15.217Z,7.25
2022-10-23T01:08:15.197Z,7.22
2022-10-23T01:09:15.261Z,7.22
2022-10-23T01:10:15.242Z,7.22
2022-10-23T01:11:15.189Z,7.22
2022-10-23T01:12:15.159Z,7.21
2022-10-23T01:13:15.217Z,7.19
2022-10-23T01:14:15.161Z,7.16
2022-10-23T01:15:15.154Z,7.15
2022-10-23T01:16:15.130Z,7.13
2022-10-23T01:17:15.179Z,7.11
2022-10-23T01:18:15.099Z,7.09
2022-10-23T01:19:15.150Z,7.08
2022-10-23T01:20:15.097Z,7.08
2022-10-23T01:21:15.113Z,7.09
2022-10-23T01:22:15.194Z,7.10
2022-10-23T01:23:15.086Z,7.09
2022-10-23T01:24:15.104Z,7.07
2022-10-23T01:25:15.062Z,7.04
2022-10-23T01:26:15.099Z,7.01
2022-10-23T01:27:15.018Z,6.99
2022-10-23T01:28:14.996Z,6.97
2022-10-23T01:29:14.992Z,6.94
2022-10-23T01:30:14.983Z,6.90
2022-10-23T01:31:14.983Z,6.88
2022-10-23T01:32:15.052Z,6.87
2022-10-23T01:33:14.965Z,6.87
2022-10-23T01:34:14.969Z,6.88
2022-10-23T01:35:14.976Z,6.90
2022-10-23T01:36:14.934Z,6.91
2022-10-23T01:37:14.913Z,6.94
2022-10-23T01:38:14.922Z,6.99
2022-10-23T01:39:14.953Z,7.05
2022-10-23T01:40:14.967Z,7.10
2022-10-23T01:41:14.874Z,7.12
2022-10-23T01:42:14.864Z,7.12
2022-10-23T01:43:14.924Z,7.11
2022-10-23T01:44:14.854Z,7.10
2022-10-23T01:45:14.923Z,7.10
2022-10-23T01:46:14.846Z,7.12
2022-10-23T01:47:14.952Z,7.14
2022-10-23T01:48:14.811Z,7.15
2022-10-23T01:49:14.812Z,7.17
2022-10-23T01:50:14.882Z,7.16
2022-10-23T01:51:14.772Z,7.14
2022-10-23T01:52:14.805Z,7.12
2022-10-23T01:53:14.772Z,7.10
2022-10-23T01:54:14.750Z,7.10
2022-10-23T01:55:14.773Z,7.09
2022-10-23T01:56:14.791Z,7.08
2022-10-23T01:57:14.726Z,7.06
2022-10-23T01:58:14.743Z,7.03
2022-10-23T01:59:14.769Z,7.00
2022-10-23T02:00:14.745Z,6.98
2022-10-23T02:01:14.881Z,6.95
2022-10-23T02:02:14.708Z,6.92
2022-10-23T02:03:14.665Z,6.90
2022-10-23T02:04:14.732Z,6.87
2022-10-23T02:05:14.634Z,6.84
2022-10-23T02:06:14.683Z,6.80
2022-10-23T02:07:14.688Z,6.77
2022-10-23T02:08:14.668Z,6.75
2022-10-23T02:09:14.618Z,6.73
2022-10-23T02:10:14.668Z,6.71
2022-10-23T02:11:14.577Z,6.69
2022-10-23T02:12:14.624Z,6.65
2022-10-23T02:13:14.637Z,6.61
2022-10-23T02:14:14.569Z,6.57
2022-10-23T02:15:14.526Z,6.54
2022-10-23T02:16:14.573Z,6.52
2022-10-23T02:17:14.670Z,6.53
2022-10-23T02:18:14.559Z,6.54
2022-10-23T02:19:14.592Z,6.55
2022-10-23T02:20:14.481Z,6.56
2022-10-23T02:21:14.480Z,6.56
2022-10-23T02:22:14.493Z,6.56
2022-10-23T02:23:14.483Z,6.54
2022-10-23T02:24:14.527Z,6.53
2022-10-23T02:25:14.486Z,6.49
2022-10-23T02:26:14.576Z,6.44
2022-10-23T02:27:14.409Z,6.39
2022-10-23T02:28:14.554Z,6.36
2022-10-23T02:29:14.567Z,6.34
2022-10-23T02:30:14.487Z,6.31
2022-10-23T02:31:14.373Z,6.29
2022-10-23T02:32:14.456Z,6.29
2022-10-23T02:33:14.595Z,6.29
2022-10-23T02:34:14.450Z,6.30
2022-10-23T02:35:14.452Z,6.32
2022-10-23T02:36:14.459Z,6.35
2022-10-23T02:37:14.395Z,6.37
2022-10-23T02:38:14.451Z,6.40
2022-10-23T02:39:14.305Z,6.42
2022-10-23T02:40:14.308Z,6.44
2022-10-23T02:41:14.323Z,6.48
2022-10-23T02:42:14.273Z,6.52
2022-10-23T02:43:14.271Z,6.53
2022-10-23T02:44:14.289Z,6.50
2022-10-23T02:45:14.368Z,6.48
2022-10-23T02:46:14.221Z,6.47
2022-10-23T02:47:14.258Z,6.46
2022-10-23T02:48:14.244Z,6.45
2022-10-23T02:49:14.284Z,6.44
2022-10-23T02:50:14.199Z,6.43
2022-10-23T02:51:14.240Z,6.40
2022-10-23T02:52:14.176Z,6.36
2022-10-23T02:53:14.149Z,6.33
2022-10-23T02:54:14.155Z,6.30
2022-10-23T02:55:14.191Z,6.28
2022-10-23T02:56:14.138Z,6.30
2022-10-23T02:57:14.173Z,6.32
2022-10-23T02:58:14.180Z,6.35
2022-10-23T02:59:14.103Z,6.40
2022-10-23T03:00:14.163Z,6.44
2022-10-23T03:01:14.422Z,6.48
2022-10-23T03:02:14.147Z,6.50
2022-10-23T03:03:14.049Z,6.50
2022-10-23T03:04:14.168Z,6.47
2022-10-23T03:05:14.046Z,6.43
2022-10-23T03:06:14.120Z,6.38
2022-10-23T03:07:14.067Z,6.31
2022-10-23T03:08:14.050Z,6.25
2022-10-23T03:09:13.995Z,6.19
2022-10-23T03:10:13.990Z,6.13
2022-10-23T03:11:14.059Z,6.08
2022-10-23T03:12:13.971Z,6.06
2022-10-23T03:13:14.045Z,6.04
2022-10-23T03:14:13.955Z,6.03
2022-10-23T03:15:13.932Z,6.04
2022-10-23T03:16:13.939Z,6.05
2022-10-23T03:17:13.986Z,6.08
2022-10-23T03:18:13.953Z,6.10
2022-10-23T03:19:13.972Z,6.12
2022-10-23T03:20:13.895Z,6.14
2022-10-23T03:21:13.873Z,6.17
2022-10-23T03:22:13.952Z,6.19
2022-10-23T03:23:13.905Z,6.22
2022-10-23T03:24:13.844Z,6.24
2022-10-23T03:25:13.883Z,6.26
2022-10-23T03:26:13.900Z,6.27
2022-10-23T03:27:13.813Z,6.28
2022-10-23T03:28:13.860Z,6.29
2022-10-23T03:29:14.070Z,6.30
2022-10-23T03:30:13.867Z,6.30
2022-10-23T03:31:13.784Z,6.31
2022-10-23T03:32:13.841Z,6.31
2022-10-23T03:33:13.809Z,6.31
2022-10-23T03:34:13.756Z,6.31
2022-10-23T03:35:13.735Z,6.30
2022-10-23T03:36:13.773Z,6.29
2022-10-23T03:37:13.722Z,6.29
2022-10-23T03:38:13.767Z,6.29
2022-10-23T03:39:13.773Z,6.30
2022-10-23T03:40:13.701Z,6.31
2022-10-23T03:41:13.665Z,6.33
2022-10-23T03:42:13.732Z,6.34
2022-10-23T03:43:13.699Z,6.35
2022-10-23T03:44:13.647Z,6.35
2022-10-23T03:45:13.711Z,6.34
2022-10-23T03:46:13.634Z,6.34
2022-10-23T03:47:13.629Z,6.33
2022-10-23T03:48:13.622Z,6.33
2022-10-23T03:49:13.633Z,6.33
2022-10-23T03:50:13.673Z,6.34
2022-10-23T03:51:13.654Z,6.35
2022-10-23T03:52:13.589Z,6.36
2022-10-23T03:53:13.556Z,6.37
2022-10-23T03:54:13.615Z,6.38
2022-10-23T03:55:13.591Z,6.38
2022-10-23T03:56:13.535Z,6.38
2022-10-23T03:57:13.526Z,6.39
2022-10-23T03:58:13.541Z,6.40
2022-10-23T03:59:13.568Z,6.41
2022-10-23T04:00:13.486Z,6.42
2022-10-23T04:01:13.573Z,6.43
2022-10-23T04:02:13.611Z,6.44
2022-10-23T04:03:13.480Z,6.46
2022-10-23T04:04:13.443Z,6.47
2022-10-23T04:05:13.596Z,6.48
2022-10-23T04:06:13.439Z,6.49
2022-10-23T04:07:13.505Z,6.49
2022-10-23T04:08:17.601Z,6.48
2022-10-23T04:10:13.381Z,6.48
2022-10-23T04:11:13.413Z,6.47
2022-10-23T04:12:13.394Z,6.47
2022-10-23T04:13:13.424Z,6.46
2022-10-23T04:14:13.610Z,6.46
2022-10-23T04:15:13.335Z,6.44
2022-10-23T04:16:13.333Z,6.42
2022-10-23T04:17:13.416Z,6.39
2022-10-23T04:18:13.320Z,6.36
2022-10-23T04:19:13.325Z,6.35
2022-10-23T04:20:13.354Z,6.35
2022-10-23T04:21:13.340Z,6.35
2022-10-23T04:22:13.310Z,6.35
2022-10-23T04:23:13.267Z,6.35
2022-10-23T04:24:13.317Z,6.34
2022-10-23T04:25:13.236Z,6.33
2022-10-23T04:26:13.230Z,6.31
2022-10-23T04:27:13.263Z,6.29
2022-10-23T04:28:13.218Z,6.28
2022-10-23T04:29:13.245Z,6.27
2022-10-23T04:30:13.282Z,6.27
2022-10-23T04:31:13.190Z,6.27
2022-10-23T04:32:13.191Z,6.27
2022-10-23T04:33:13.266Z,6.28
2022-10-23T04:34:13.207Z,6.27
2022-10-23T04:35:13.152Z,6.25
2022-10-23T04:36:13.148Z,6.22
2022-10-23T04:37:13.182Z,6.20
2022-10-23T04:38:13.221Z,6.19
2022-10-23T04:39:13.107Z,6.18
2022-10-23T04:40:13.095Z,6.18
2022-10-23T04:41:13.127Z,6.18
2022-10-23T04:42:13.131Z,6.18
2022-10-23T04:43:13.130Z,6.18
2022-10-23T04:44:13.073Z,6.19
2022-10-23T04:45:13.158Z,6.21
2022-10-23T04:46:13.027Z,6.23
2022-10-23T04:47:13.016Z,6.25
2022-10-23T04:48:13.131Z,6.26
2022-10-23T04:49:13.048Z,6.27
2022-10-23T04:50:13.024Z,6.27
2022-10-23T04:51:13.055Z,6.27
2022-10-23T04:52:13.038Z,6.27
2022-10-23T04:53:12.961Z,6.27
2022-10-23T04:54:12.975Z,6.27
2022-10-23T04:55:12.945Z,6.28
2022-10-23T04:56:12.933Z,6.29
2022-10-23T04:57:13.020Z,6.30
2022-10-23T04:58:12.936Z,6.32
2022-10-23T04:59:12.905Z,6.33
2022-10-23T05:00:12.912Z,6.34
2022-10-23T05:01:13.011Z,6.36
2022-10-23T05:02:12.868Z,6.37
2022-10-23T05:03:12.936Z,6.39
2022-10-23T05:04:12.843Z,6.40
2022-10-23T05:05:12.891Z,6.40
2022-10-23T05:06:12.863Z,6.41
2022-10-23T05:07:12.911Z,6.41
2022-10-23T05:08:15.595Z,6.42
2022-10-23T05:09:12.911Z,6.43
2022-10-23T05:10:12.803Z,6.44
2022-10-23T05:11:12.918Z,6.45
2022-10-23T05:12:12.741Z,6.46
2022-10-23T05:13:12.782Z,6.47
2022-10-23T05:14:12.805Z,6.47
2022-10-23T05:15:12.757Z,6.47
2022-10-23T05:16:12.748Z,6.47
2022-10-23T05:17:12.735Z,6.48
2022-10-23T05:18:12.815Z,6.48
2022-10-23T05:19:12.694Z,6.48
2022-10-23T05:20:12.704Z,6.48
2022-10-23T05:21:12.705Z,6.48
2022-10-23T05:22:12.713Z,6.47
2022-10-23T05:23:12.606Z,6.47
2022-10-23T05:24:12.673Z,6.47
2022-10-23T05:25:12.661Z,6.48
2022-10-23T05:26:12.617Z,6.48
2022-10-23T05:27:12.594Z,6.48
2022-10-23T05:28:12.615Z,6.47
2022-10-23T05:29:12.578Z,6.47
2022-10-23T05:30:12.542Z,6.47
2022-10-23T05:31:12.546Z,6.47
2022-10-23T05:32:12.560Z,6.48
2022-10-23T05:33:12.675Z,6.48
2022-10-23T05:34:13.481Z,6.49
2022-10-23T05:35:12.573Z,6.49
2022-10-23T05:36:12.510Z,6.49
2022-10-23T05:37:12.611Z,6.49
2022-10-23T05:38:12.462Z,6.49
2022-10-23T05:39:12.442Z,6.49
2022-10-23T05:40:12.438Z,6.49
2022-10-23T05:41:12.753Z,6.50
2022-10-23T05:42:12.420Z,6.52
2022-10-23T05:43:12.484Z,6.53
2022-10-23T05:44:12.407Z,6.55
2022-10-23T05:45:12.409Z,6.56
2022-10-23T05:46:12.427Z,6.56
2022-10-23T05:47:12.378Z,6.57
2022-10-23T05:48:29.786Z,6.57
2022-10-23T05:49:12.363Z,6.58
2022-10-23T05:50:12.356Z,6.58
2022-10-23T05:51:12.355Z,6.58
2022-10-23T05:52:12.397Z,6.59
2022-10-23T05:53:12.420Z,6.59
2022-10-23T05:54:12.363Z,6.61
2022-10-23T05:55:12.303Z,6.62
2022-10-23T05:56:12.302Z,6.64
2022-10-23T05:57:12.390Z,6.66
2022-10-23T05:58:12.333Z,6.67
2022-10-23T05:59:12.257Z,6.67
2022-10-23T06:00:12.261Z,6.66
2022-10-23T06:01:12.324Z,6.64
2022-10-23T06:02:12.351Z,6.62
2022-10-23T06:03:12.251Z,6.60
2022-10-23T06:04:12.195Z,6.58
2022-10-23T06:05:12.254Z,6.56
2022-10-23T06:06:12.406Z,6.54
2022-10-23T06:07:12.189Z,6.54
2022-10-23T06:08:12.283Z,6.54
2022-10-23T06:09:12.172Z,6.53
2022-10-23T06:10:12.194Z,6.53
2022-10-23T06:11:12.146Z,6.55
2022-10-23T06:12:12.144Z,6.57
2022-10-23T06:13:12.141Z,6.59
2022-10-23T06:14:12.141Z,6.60
2022-10-23T06:15:12.086Z,6.60
2022-10-23T06:16:12.146Z,6.61
2022-10-23T06:17:12.118Z,6.63
2022-10-23T06:18:12.151Z,6.65
2022-10-23T06:19:12.052Z,6.67
2022-10-23T06:20:12.033Z,6.69
2022-10-23T06:21:12.049Z,6.71
2022-10-23T06:22:12.132Z,6.73
2022-10-23T06:23:12.013Z,6.75
2022-10-23T06:24:12.074Z,6.77
2022-10-23T06:25:11.990Z,6.80
2022-10-23T06:26:12.037Z,6.84
2022-10-23T06:27:12.046Z,6.89
2022-10-23T06:28:13.357Z,6.94
2022-10-23T06:29:12.011Z,7.01
2022-10-23T06:30:11.944Z,7.07
2022-10-23T06:31:12.006Z,7.10
2022-10-23T06:32:11.932Z,7.13
2022-10-23T06:33:12.034Z,7.15
2022-10-23T06:34:11.985Z,7.17
2022-10-23T06:35:11.964Z,7.19
2022-10-23T06:36:11.906Z,7.22
2022-10-23T06:37:11.887Z,7.27
2022-10-23T06:38:11.889Z,7.34
2022-10-23T06:39:11.901Z,7.42
2022-10-23T06:40:11.926Z,7.49
2022-10-23T06:41:11.878Z,7.53
2022-10-23T06:42:11.860Z,7.54
2022-10-23T06:43:11.841Z,7.54
2022-10-23T06:44:11.819Z,7.53
2022-10-23T06:45:11.852Z,7.52
2022-10-23T06:46:11.806Z,7.53
2022-10-23T06:47:11.783Z,7.55
2022-10-23T06:48:11.820Z,7.57
2022-10-23T06:49:11.766Z,7.61
2022-10-23T06:50:14.597Z,7.66
2022-10-23T06:51:11.788Z,7.71
2022-10-23T06:52:18.530Z,7.77
2022-10-23T06:53:11.746Z,7.79
2022-10-23T06:54:11.706Z,7.80
2022-10-23T06:55:11.693Z,7.80
2022-10-23T06:56:11.675Z,7.79
2022-10-23T06:57:11.782Z,7.79
2022-10-23T06:58:11.669Z,7.79
2022-10-23T06:59:11.669Z,7.80
2022-10-23T07:00:11.640Z,7.80
2022-10-23T07:01:11.806Z,7.81
2022-10-23T07:02:11.614Z,7.84
2022-10-23T07:03:11.663Z,7.89
2022-10-23T07:04:11.651Z,7.96
2022-10-23T07:05:13.650Z,8.04
2022-10-23T07:06:11.600Z,8.12
2022-10-23T07:07:11.691Z,8.20
2022-10-23T07:08:11.604Z,8.27
2022-10-23T07:09:11.546Z,8.30
2022-10-23T07:10:11.558Z,8.28
2022-10-23T07:11:11.568Z,8.24
2022-10-23T07:12:11.522Z,8.21
2022-10-23T07:13:11.580Z,8.20
2022-10-23T07:14:11.552Z,8.20
2022-10-23T07:15:11.496Z,8.23
2022-10-23T07:16:11.494Z,8.28
2022-10-23T07:17:11.583Z,8.35
2022-10-23T07:18:11.462Z,8.40
2022-10-23T07:19:11.527Z,8.41
2022-10-23T07:20:11.438Z,8.39
2022-10-23T07:21:11.465Z,8.40
2022-10-23T07:22:14.886Z,8.44
2022-10-23T07:23:11.465Z,8.49
2022-10-23T07:24:11.511Z,8.53
2022-10-23T07:25:11.450Z,8.55
2022-10-23T07:26:11.409Z,8.59
2022-10-23T07:27:11.457Z,8.64
2022-10-23T07:28:11.433Z,8.67
2022-10-23T07:29:11.365Z,8.70
2022-10-23T07:30:11.369Z,8.75
2022-10-23T07:31:11.359Z,8.81
2022-10-23T07:32:11.358Z,8.88
2022-10-23T07:33:11.375Z,8.93
2022-10-23T07:34:11.321Z,8.97
2022-10-23T07:35:11.362Z,8.99
2022-10-23T07:36:11.366Z,8.98
2022-10-23T07:37:11.272Z,8.95
2022-10-23T07:38:11.340Z,8.94
2022-10-23T07:39:11.316Z,8.97
2022-10-23T07:40:11.242Z,9.00
2022-10-23T07:41:11.586Z,9.03
2022-10-23T07:42:11.312Z,9.08
2022-10-23T07:43:11.259Z,9.14
2022-10-23T07:44:11.249Z,9.21
2022-10-23T07:45:11.269Z,9.31
2022-10-23T07:46:11.291Z,9.40
2022-10-23T07:47:11.233Z,9.48
2022-10-23T07:48:11.153Z,9.50
2022-10-23T07:49:11.143Z,9.46
2022-10-23T07:50:11.136Z,9.39
2022-10-23T07:51:11.194Z,9.33
2022-10-23T07:52:11.186Z,9.31
2022-10-23T07:53:11.230Z,9.34
2022-10-23T07:54:11.097Z,9.38
2022-10-23T07:55:11.139Z,9.41
2022-10-23T07:56:11.136Z,9.46
2022-10-23T07:57:11.071Z,9.50
2022-10-23T07:58:11.075Z,9.55
2022-10-23T07:59:11.047Z,9.60
2022-10-23T08:00:11.150Z,9.64
2022-10-23T08:01:11.098Z,9.69
2022-10-23T08:02:11.064Z,9.74
2022-10-23T08:03:11.010Z,9.78
2022-10-23T08:04:11.012Z,9.78
2022-10-23T08:05:11.045Z,9.79
2022-10-23T08:06:11.025Z,9.80
2022-10-23T08:07:11.191Z,9.81
2022-10-23T08:08:10.978Z,9.80
2022-10-23T08:09:10.944Z,9.74
2022-10-23T08:10:11.014Z,9.67
2022-10-23T08:11:10.952Z,9.63
2022-10-23T08:12:10.957Z,9.61
2022-10-23T08:13:11.315Z,9.63
2022-10-23T08:14:10.913Z,9.65
2022-10-23T08:15:10.945Z,9.66
2022-10-23T08:16:10.969Z,9.69
2022-10-23T08:17:10.882Z,9.74
2022-10-23T08:18:10.902Z,9.79
2022-10-23T08:19:10.914Z,9.83
2022-10-23T08:20:10.852Z,9.87
2022-10-23T08:21:10.840Z,9.91
2022-10-23T08:22:10.889Z,9.95
2022-10-23T08:23:10.836Z,9.99
2022-10-23T08:24:10.808Z,10.02
2022-10-23T08:25:10.837Z,10.05
2022-10-23T08:26:10.786Z,10.06
2022-10-23T08:27:10.843Z,10.00
2022-10-23T08:28:10.807Z,9.90
2022-10-23T08:29:10.788Z,9.81
2022-10-23T08:30:10.737Z,9.77
2022-10-23T08:31:10.720Z,9.76
2022-10-23T08:32:10.781Z,9.80
2022-10-23T08:33:10.750Z,9.87
2022-10-23T08:34:10.723Z,9.96
2022-10-23T08:35:10.691Z,10.06
2022-10-23T08:36:10.707Z,10.15
2022-10-23T08:37:10.715Z,10.25
2022-10-23T08:38:10.701Z,10.34
2022-10-23T08:39:10.672Z,10.42
2022-10-23T08:40:10.809Z,10.46
2022-10-23T08:41:10.796Z,10.45
2022-10-23T08:43:09.607Z,10.43
2022-10-23T08:44:10.653Z,10.45
2022-10-23T08:45:10.634Z,10.50
2022-10-23T08:46:10.644Z,10.57
2022-10-23T08:47:10.644Z,10.64
2022-10-23T08:48:10.622Z,10.69
2022-10-23T08:49:10.603Z,10.74
2022-10-23T08:50:10.594Z,10.80
2022-10-23T08:51:10.527Z,10.86
2022-10-23T08:52:13.264Z,10.90
2022-10-23T08:53:10.570Z,10.97
2022-10-23T08:54:10.516Z,11.06
2022-10-23T08:55:10.494Z,11.17
2022-10-23T08:56:10.538Z,11.28
2022-10-23T08:57:10.482Z,11.39
2022-10-23T08:58:10.451Z,11.50
2022-10-23T08:59:10.509Z,11.61
2022-10-23T09:00:10.426Z,11.69
2022-10-23T09:01:10.614Z,11.73
2022-10-23T09:02:10.677Z,11.74
2022-10-23T09:03:10.440Z,11.72
2022-10-23T09:04:10.496Z,11.69
2022-10-23T09:05:10.395Z,11.65
2022-10-23T09:06:10.405Z,11.64
2022-10-23T09:07:10.420Z,11.66
2022-10-23T09:08:10.545Z,11.66
2022-10-23T09:09:10.437Z,11.63
2022-10-23T09:10:10.450Z,11.59
2022-10-23T09:11:10.381Z,11.62
2022-10-23T09:12:10.449Z,11.69
2022-10-23T09:13:10.295Z,11.75
2022-10-23T09:14:10.301Z,11.78
2022-10-23T09:15:10.289Z,11.74
2022-10-23T09:16:10.386Z,11.66
2022-10-23T09:17:10.329Z,11.55
2022-10-23T09:18:10.253Z,11.45
2022-10-23T09:19:12.136Z,11.44
2022-10-23T09:20:10.235Z,11.52
2022-10-23T09:21:10.263Z,11.63
2022-10-23T09:22:10.234Z,11.74
2022-10-23T09:23:10.253Z,11.80
2022-10-23T09:24:10.241Z,11.77
2022-10-23T09:25:10.380Z,11.70
2022-10-23T09:26:10.182Z,11.64
2022-10-23T09:27:10.190Z,11.60
2022-10-23T09:28:10.192Z,11.57
2022-10-23T09:29:10.163Z,11.52
2022-10-23T09:30:10.152Z,11.44
2022-10-23T09:31:10.191Z,11.38
2022-10-23T09:32:10.112Z,11.31
2022-10-23T09:33:10.265Z,11.21
2022-10-23T09:34:11.821Z,11.08
2022-10-23T09:35:10.137Z,10.99
2022-10-23T09:36:10.071Z,11.00
2022-10-23T09:37:10.087Z,11.06
2022-10-23T09:38:10.112Z,11.18
2022-10-23T09:39:10.061Z,11.36
2022-10-23T09:40:10.047Z,11.56
2022-10-23T09:41:10.035Z,11.76
2022-10-23T09:42:10.031Z,11.94
2022-10-23T09:43:10.010Z,12.12
2022-10-23T09:44:10.085Z,12.31
2022-10-23T09:45:10.029Z,12.47
2022-10-23T09:46:09.981Z,12.58
2022-10-23T09:47:09.963Z,12.66
2022-10-23T09:48:09.996Z,12.75
2022-10-23T09:49:09.948Z,12.84
2022-10-23T09:50:09.984Z,12.95
2022-10-23T09:51:09.931Z,13.07
2022-10-23T09:52:09.913Z,13.16
2022-10-23T09:53:09.904Z,13.19
2022-10-23T09:54:09.884Z,13.14
2022-10-23T09:55:09.963Z,13.10
2022-10-23T09:56:09.989Z,13.12
2022-10-23T09:57:09.899Z,13.13
2022-10-23T09:58:09.879Z,13.04
2022-10-23T09:59:09.909Z,12.98
2022-10-23T10:00:09.847Z,13.01
2022-10-23T10:01:10.076Z,13.09
2022-10-23T10:02:10.092Z,13.21
2022-10-23T10:03:09.804Z,13.33
2022-10-23T10:04:09.799Z,13.34
2022-10-23T10:05:09.789Z,13.26
2022-10-23T10:06:09.810Z,13.13
2022-10-23T10:07:09.820Z,12.98
2022-10-23T10:08:09.799Z,12.94
2022-10-23T10:09:09.823Z,13.06
2022-10-23T10:10:09.776Z,13.26
2022-10-23T10:11:09.789Z,13.48
2022-10-23T10:12:09.775Z,13.68
2022-10-23T10:13:14.199Z,13.79
2022-10-23T10:14:09.774Z,13.78
2022-10-23T10:15:09.682Z,13.74
2022-10-23T10:16:09.772Z,13.77
2022-10-23T10:17:09.675Z,13.89
2022-10-23T10:18:09.680Z,14.04
2022-10-23T10:19:09.763Z,14.21
2022-10-23T10:20:09.701Z,14.41
2022-10-23T10:21:09.656Z,14.61
2022-10-23T10:22:09.614Z,14.78
2022-10-23T10:23:09.686Z,14.93
2022-10-23T10:24:09.625Z,15.05
2022-10-23T10:25:09.595Z,15.11
2022-10-23T10:26:09.647Z,15.17
2022-10-23T10:27:09.611Z,15.25
2022-10-23T10:28:09.615Z,15.30
2022-10-23T10:29:09.603Z,15.30
2022-10-23T10:30:09.598Z,15.27
2022-10-23T10:31:09.578Z,15.22
2022-10-23T10:32:09.582Z,15.17
2022-10-23T10:33:09.535Z,15.17
2022-10-23T10:34:09.582Z,15.19
2022-10-23T10:35:09.622Z,15.21
2022-10-23T10:36:09.518Z,15.22
2022-10-23T10:37:09.530Z,15.21
2022-10-23T10:38:09.470Z,15.19
2022-10-23T10:39:09.468Z,15.17
2022-10-23T10:40:09.517Z,15.19
2022-10-23T10:41:09.444Z,15.26
2022-10-23T10:42:09.430Z,15.33
2022-10-23T10:43:09.454Z,15.33
2022-10-23T10:44:09.437Z,15.34
2022-10-23T10:45:09.410Z,15.36
2022-10-23T10:46:09.411Z,15.37
2022-10-23T10:47:09.502Z,15.42
2022-10-23T10:48:09.365Z,15.50
2022-10-23T10:49:09.419Z,15.60
2022-10-23T10:50:09.412Z,15.67
2022-10-23T10:51:09.332Z,15.75
2022-10-23T10:52:09.333Z,15.85
2022-10-23T10:53:09.357Z,15.93
2022-10-23T10:54:09.482Z,15.98
2022-10-23T10:55:09.287Z,15.97
2022-10-23T10:57:08.315Z,15.99
2022-10-23T10:58:09.262Z,16.07
2022-10-23T10:59:09.269Z,16.19
2022-10-23T11:00:09.297Z,16.37
2022-10-23T11:01:09.424Z,16.58
2022-10-23T11:02:09.495Z,16.75
2022-10-23T11:03:09.233Z,16.79
2022-10-23T11:04:09.224Z,16.71
2022-10-23T11:05:09.194Z,16.55
2022-10-23T11:06:09.190Z,16.37
2022-10-23T11:07:09.276Z,16.20
2022-10-23T11:08:09.249Z,16.06
2022-10-23T11:09:20.142Z,15.94
2022-10-23T11:10:09.256Z,15.86
2022-10-23T11:11:09.141Z,15.79
2022-10-23T11:12:09.172Z,15.71
2022-10-23T11:13:09.201Z,15.66
2022-10-23T11:14:09.152Z,15.64
2022-10-23T11:15:09.141Z,15.65
2022-10-23T11:16:09.102Z,15.68
2022-10-23T11:17:09.072Z,15.69
2022-10-23T11:18:09.082Z,15.69
2022-10-23T11:19:13.008Z,15.70
2022-10-23T11:20:09.055Z,15.73
2022-10-23T11:21:09.154Z,15.79
2022-10-23T11:22:09.071Z,15.85
2022-10-23T11:23:09.128Z,15.88
2022-10-23T11:25:08.049Z,15.89
2022-10-23T11:26:09.020Z,15.88
2022-10-23T11:27:08.980Z,15.84
2022-10-23T11:28:10.703Z,15.77
2022-10-23T11:29:08.972Z,15.70
2022-10-23T11:30:09.010Z,15.65
2022-10-23T11:31:11.978Z,15.62
2022-10-23T11:32:09.002Z,15.58
2022-10-23T11:33:09.000Z,15.51
2022-10-23T11:34:08.985Z,15.44
2022-10-23T11:35:08.997Z,15.38
2022-10-23T11:36:08.930Z,15.33
2022-10-23T11:37:08.874Z,15.30
2022-10-23T11:38:09.046Z,15.25
2022-10-23T11:39:08.912Z,15.18
2022-10-23T11:40:08.862Z,15.12
2022-10-23T11:41:08.833Z,15.09
2022-10-23T11:42:08.890Z,15.08
2022-10-23T11:43:08.841Z,15.10
2022-10-23T11:44:08.805Z,15.12
2022-10-23T11:45:08.813Z,15.13
2022-10-23T11:46:08.803Z,15.16
2022-10-23T11:47:08.802Z,15.21
2022-10-23T11:48:08.827Z,15.26
2022-10-23T11:49:08.794Z,15.26
2022-10-23T11:50:08.754Z,15.25
2022-10-23T11:51:08.782Z,15.23
2022-10-23T11:52:08.731Z,15.22
2022-10-23T11:53:16.509Z,15.20
2022-10-23T11:54:08.834Z,15.20
2022-10-23T11:55:08.710Z,15.21
2022-10-23T11:56:08.692Z,15.24
2022-10-23T11:57:10.520Z,15.30
2022-10-23T11:58:08.667Z,15.37
2022-10-23T11:59:08.781Z,15.43
2022-10-23T12:00:08.682Z,15.49
2022-10-23T12:01:08.801Z,15.52
2022-10-23T12:02:08.700Z,15.54
2022-10-23T12:03:08.618Z,15.57
2022-10-23T12:04:08.658Z,15.63
2022-10-23T12:05:08.701Z,15.69
2022-10-23T12:06:08.611Z,15.75
2022-10-23T12:07:07.602Z,15.84
2022-10-23T12:08:08.615Z,15.92
2022-10-23T12:09:08.625Z,16.01
2022-10-23T12:10:08.629Z,16.09
2022-10-23T12:11:08.531Z,16.21
2022-10-23T12:12:08.597Z,16.36
2022-10-23T12:13:08.555Z,16.52
2022-10-23T12:14:08.559Z,16.68
2022-10-23T12:15:09.594Z,16.83
2022-10-23T12:16:08.501Z,16.96
2022-10-23T12:17:08.508Z,17.04
2022-10-23T12:18:08.579Z,17.07
2022-10-23T12:19:08.511Z,17.10
2022-10-23T12:20:08.460Z,17.14
2022-10-23T12:21:08.894Z,17.20
2022-10-23T12:22:08.636Z,17.27
2022-10-23T12:23:08.416Z,17.37
2022-10-23T12:24:08.456Z,17.48
2022-10-23T12:25:08.409Z,17.58
2022-10-23T12:26:08.437Z,17.68
2022-10-23T12:27:08.458Z,17.77
2022-10-23T12:28:08.382Z,17.85
2022-10-23T12:29:08.448Z,17.95
2022-10-23T12:30:08.358Z,18.11
2022-10-23T12:31:08.383Z,18.26
2022-10-23T12:32:08.329Z,18.43
2022-10-23T12:33:08.362Z,18.66
2022-10-23T12:34:08.318Z,18.89
2022-10-23T12:35:08.568Z,19.08
2022-10-23T12:36:08.310Z,19.24
2022-10-23T12:37:08.284Z,19.30
2022-10-23T12:38:08.311Z,19.32
2022-10-23T12:39:10.861Z,19.35
2022-10-23T12:40:08.294Z,19.37
2022-10-23T12:41:08.234Z,19.37
2022-10-23T12:42:08.317Z,19.34
2022-10-23T12:43:08.248Z,19.24
2022-10-23T12:44:08.255Z,19.11
2022-10-23T12:45:08.266Z,18.99
2022-10-23T12:46:08.269Z,18.89
2022-10-23T12:47:08.224Z,18.80
2022-10-23T12:48:08.172Z,18.71
2022-10-23T12:49:08.287Z,18.69
2022-10-23T12:50:08.164Z,18.73
2022-10-23T12:51:08.144Z,18.78
2022-10-23T12:52:08.127Z,18.89
2022-10-23T12:53:08.187Z,19.05
2022-10-23T12:54:08.136Z,19.21
2022-10-23T12:55:08.216Z,19.36
2022-10-23T12:56:08.097Z,19.47
2022-10-23T12:57:08.094Z,19.49
2022-10-23T12:58:08.066Z,19.38
2022-10-23T12:59:08.066Z,19.22
2022-10-23T13:00:08.172Z,19.16
2022-10-23T13:01:08.180Z,19.15
2022-10-23T13:02:08.141Z,19.16
2022-10-23T13:03:08.110Z,19.24
2022-10-23T13:04:08.115Z,19.37
2022-10-23T13:05:08.031Z,19.47
2022-10-23T13:06:08.007Z,19.51
2022-10-23T13:07:08.069Z,19.54
2022-10-23T13:08:08.007Z,19.59
2022-10-23T13:09:07.985Z,19.64
2022-10-23T13:10:08.022Z,19.66
2022-10-23T13:11:08.034Z,19.65
2022-10-23T13:12:07.967Z,19.62
2022-10-23T13:13:07.961Z,19.64
2022-10-23T13:14:07.982Z,19.76
2022-10-23T13:15:07.913Z,19.95